createdAt,value
2022-12-24T00:00:03.769Z,1002.53
2022-12-24T00:01:03.851Z,1002.59
2022-12-24T00:02:04.269Z,1002.59
2022-12-24T00:03:04.355Z,1002.59
2022-12-24T00:04:04.552Z,1002.61
2022-12-24T00:05:04.730Z,1002.62
2022-12-24T00:06:04.982Z,1002.64
2022-12-24T00:07:05.256Z,1002.58
2022-12-24T00:08:05.419Z,1002.63
2022-12-24T00:09:05.645Z,1002.65
2022-12-24T00:10:05.869Z,1002.66
2022-12-24T00:11:06.095Z,1002.68
2022-12-24T00:12:06.473Z,1002.71
2022-12-24T00:13:06.537Z,1002.73
2022-12-24T00:14:06.766Z,1002.72
2022-12-24T00:15:07.005Z,1002.67
2022-12-24T00:16:07.188Z,1002.65
2022-12-24T00:17:07.562Z,1002.69
2022-12-24T00:18:07.634Z,1002.66
2022-12-24T00:19:07.872Z,1002.67
2022-12-24T00:20:08.088Z,1002.68
2022-12-24T00:21:08.301Z,1002.64
2022-12-24T00:22:08.570Z,1002.67
2022-12-24T00:23:08.786Z,1002.61
2022-12-24T00:24:08.966Z,1002.65
2022-12-24T00:25:09.206Z,1002.64
2022-12-24T00:26:09.439Z,1002.66
2022-12-24T00:27:09.666Z,1002.63
2022-12-24T00:28:09.935Z,1002.62
2022-12-24T00:29:10.133Z,1002.63
2022-12-24T00:30:10.430Z,1002.64
2022-12-24T00:31:10.673Z,1002.62
2022-12-24T00:32:10.828Z,1002.64
2022-12-24T00:33:11.035Z,1002.66
2022-12-24T00:34:11.237Z,1002.64
2022-12-24T00:35:11.435Z,1002.64
2022-12-24T00:36:11.639Z,1002.66
2022-12-24T00:37:11.978Z,1002.66
2022-12-24T00:38:12.019Z,1002.64
2022-12-24T00:39:12.227Z,1002.66
2022-12-24T00:40:12.415Z,1002.68
2022-12-24T00:41:12.613Z,1002.66
2022-12-24T00:42:12.821Z,1002.62
2022-12-24T00:43:13.017Z,1002.58
2022-12-24T00:44:13.173Z,1002.59
2022-12-24T00:45:13.388Z,1002.58
2022-12-24T00:46:13.631Z,1002.56
2022-12-24T00:47:13.779Z,1002.61
2022-12-24T00:48:13.960Z,1002.63
2022-12-24T00:49:14.171Z,1002.63
2022-12-24T00:50:14.369Z,1002.68
2022-12-24T00:51:14.695Z,1002.71
2022-12-24T00:52:15.183Z,1002.73
2022-12-24T00:53:15.074Z,1002.73
2022-12-24T00:54:15.314Z,1002.72
2022-12-24T00:55:15.588Z,1002.70
2022-12-24T00:56:16.021Z,1002.71
2022-12-24T00:57:15.989Z,1002.67
2022-12-24T00:58:16.219Z,1002.67
2022-12-24T00:59:16.457Z,1002.70
2022-12-24T01:00:16.671Z,1002.68
2022-12-24T01:01:17.027Z,1002.67
2022-12-24T01:02:17.436Z,1002.72
2022-12-24T01:03:17.405Z,1002.74
2022-12-24T01:04:17.584Z,1002.78
2022-12-24T01:05:17.800Z,1002.79
2022-12-24T01:06:18.034Z,1002.79
2022-12-24T01:07:18.221Z,1002.78
2022-12-24T01:08:18.437Z,1002.76
2022-12-24T01:09:18.750Z,1002.78
2022-12-24T01:10:18.907Z,1002.77
2022-12-24T01:11:19.130Z,1002.80
2022-12-24T01:12:19.362Z,1002.82
2022-12-24T01:13:19.603Z,1002.80
2022-12-24T01:14:19.878Z,1002.83
2022-12-24T01:15:20.070Z,1002.81
2022-12-24T01:16:20.473Z,1002.85
2022-12-24T01:17:20.527Z,1002.83
2022-12-24T01:18:20.691Z,1002.87
2022-12-24T01:19:20.898Z,1002.93
2022-12-24T01:20:21.136Z,1002.94
2022-12-24T01:21:21.340Z,1002.97
2022-12-24T01:22:21.527Z,1003.00
2022-12-24T01:23:21.706Z,1003.00
2022-12-24T01:24:21.903Z,1003.04
2022-12-24T01:25:22.115Z,1003.01
2022-12-24T01:26:22.310Z,1003.06
2022-12-24T01:27:22.534Z,1003.03
2022-12-24T01:28:22.727Z,1003.04
2022-12-24T01:29:22.931Z,1003.05
2022-12-24T01:30:23.104Z,1003.08
2022-12-24T01:31:23.414Z,1003.11
2022-12-24T01:32:23.513Z,1003.13
2022-12-24T01:33:23.785Z,1003.13
2022-12-24T01:34:23.954Z,1003.14
2022-12-24T01:35:24.110Z,1003.19
2022-12-24T01:36:24.320Z,1003.14
2022-12-24T01:37:24.510Z,1003.13
2022-12-24T01:38:24.989Z,1003.17
2022-12-24T01:39:24.936Z,1003.17
2022-12-24T01:40:25.132Z,1003.16
2022-12-24T01:41:25.345Z,1003.18
2022-12-24T01:42:25.551Z,1003.17
2022-12-24T01:43:25.845Z,1003.22
2022-12-24T01:44:31.259Z,1003.22
2022-12-24T01:45:26.229Z,1003.19
2022-12-24T01:46:26.568Z,1003.25
2022-12-24T01:47:26.710Z,1003.21
2022-12-24T01:48:26.977Z,1003.26
2022-12-24T01:49:27.176Z,1003.24
2022-12-24T01:50:27.407Z,1003.25
2022-12-24T01:51:27.643Z,1003.27
2022-12-24T01:52:27.875Z,1003.27
2022-12-24T01:53:28.147Z,1003.28
2022-12-24T01:54:28.358Z,1003.26
2022-12-24T01:55:28.595Z,1003.28
2022-12-24T01:56:28.832Z,1003.24
2022-12-24T01:57:29.084Z,1003.25
2022-12-24T01:58:29.276Z,1003.31
2022-12-24T01:59:29.497Z,1003.27
2022-12-24T02:00:29.786Z,1003.30
2022-12-24T02:01:30.156Z,1003.31
2022-12-24T02:02:30.487Z,1003.31
2022-12-24T02:03:30.518Z,1003.29
2022-12-24T02:04:30.730Z,1003.29
2022-12-24T02:05:31.007Z,1003.32
2022-12-24T02:06:31.219Z,1003.31
2022-12-24T02:07:31.528Z,1003.33
2022-12-24T02:08:31.744Z,1003.37
2022-12-24T02:09:31.943Z,1003.26
2022-12-24T02:10:32.265Z,1003.26
2022-12-24T02:11:32.435Z,1003.31
2022-12-24T02:12:32.683Z,1003.30
2022-12-24T02:13:32.939Z,1003.30
2022-12-24T02:14:33.184Z,1003.34
2022-12-24T02:15:33.466Z,1003.32
2022-12-24T02:16:33.817Z,1003.36
2022-12-24T02:17:33.912Z,1003.37
2022-12-24T02:18:34.141Z,1003.37
2022-12-24T02:19:34.447Z,1003.39
2022-12-24T02:20:34.663Z,1003.40
2022-12-24T02:21:34.854Z,1003.43
2022-12-24T02:22:35.077Z,1003.44
2022-12-24T02:23:35.320Z,1003.42
2022-12-24T02:24:35.566Z,1003.43
2022-12-24T02:25:35.821Z,1003.41
2022-12-24T02:26:36.014Z,1003.41
2022-12-24T02:27:36.230Z,1003.48
2022-12-24T02:28:36.465Z,1003.47
2022-12-24T02:29:36.649Z,1003.46
2022-12-24T02:30:36.887Z,1003.52
2022-12-24T02:31:37.113Z,1003.55
2022-12-24T02:32:37.285Z,1003.56
2022-12-24T02:33:37.472Z,1003.56
2022-12-24T02:34:37.657Z,1003.56
2022-12-24T02:35:37.864Z,1003.57
2022-12-24T02:36:38.092Z,1003.61
2022-12-24T02:37:38.306Z,1003.58
2022-12-24T02:38:38.620Z,1003.61
2022-12-24T02:39:38.732Z,1003.62
2022-12-24T02:40:38.943Z,1003.65
2022-12-24T02:41:39.157Z,1003.65
2022-12-24T02:42:39.373Z,1003.66
2022-12-24T02:43:39.604Z,1003.66
2022-12-24T02:44:39.892Z,1003.67
2022-12-24T02:45:39.969Z,1003.66
2022-12-24T02:46:40.268Z,1003.68
2022-12-24T02:47:40.369Z,1003.61
2022-12-24T02:48:40.562Z,1003.63
2022-12-24T02:49:40.792Z,1003.65
2022-12-24T02:50:40.959Z,1003.65
2022-12-24T02:51:41.155Z,1003.65
2022-12-24T02:52:41.364Z,1003.65
2022-12-24T02:53:41.577Z,1003.66
2022-12-24T02:54:41.811Z,1003.63
2022-12-24T02:55:42.017Z,1003.63
2022-12-24T02:56:42.208Z,1003.61
2022-12-24T02:57:42.411Z,1003.62
2022-12-24T02:58:42.618Z,1003.61
2022-12-24T02:59:42.861Z,1003.60
2022-12-24T03:00:43.107Z,1003.62
2022-12-24T03:01:43.525Z,1003.62
2022-12-24T03:02:43.573Z,1003.57
2022-12-24T03:03:43.694Z,1003.58
2022-12-24T03:04:43.947Z,1003.60
2022-12-24T03:05:44.126Z,1003.59
2022-12-24T03:06:44.326Z,1003.55
2022-12-24T03:07:44.616Z,1003.56
2022-12-24T03:08:44.766Z,1003.61
2022-12-24T03:09:44.977Z,1003.58
2022-12-24T03:10:45.235Z,1003.59
2022-12-24T03:11:45.388Z,1003.61
2022-12-24T03:12:45.598Z,1003.63
2022-12-24T03:13:45.801Z,1003.64
2022-12-24T03:14:46.042Z,1003.71
2022-12-24T03:15:46.271Z,1003.72
2022-12-24T03:16:46.559Z,1003.71
2022-12-24T03:17:46.666Z,1003.76
2022-12-24T03:18:46.876Z,1003.72
2022-12-24T03:19:47.098Z,1003.72
2022-12-24T03:20:47.337Z,1003.72
2022-12-24T03:21:47.491Z,1003.75
2022-12-24T03:22:47.696Z,1003.72
2022-12-24T03:23:47.932Z,1003.78
2022-12-24T03:24:48.095Z,1003.82
2022-12-24T03:25:48.369Z,1003.88
2022-12-24T03:26:48.526Z,1003.85
2022-12-24T03:27:48.739Z,1003.83
2022-12-24T03:28:48.982Z,1003.86
2022-12-24T03:29:49.174Z,1003.82
2022-12-24T03:30:49.454Z,1003.85
2022-12-24T03:31:49.719Z,1003.86
2022-12-24T03:32:49.843Z,1003.91
2022-12-24T03:33:50.048Z,1003.89
2022-12-24T03:34:50.261Z,1003.90
2022-12-24T03:35:50.484Z,1003.95
2022-12-24T03:36:50.658Z,1003.91
2022-12-24T03:37:50.876Z,1003.90
2022-12-24T03:38:51.091Z,1003.92
2022-12-24T03:39:51.336Z,1003.92
2022-12-24T03:40:51.528Z,1003.85
2022-12-24T03:41:51.706Z,1003.89
2022-12-24T03:42:51.910Z,1003.86
2022-12-24T03:43:52.114Z,1003.92
2022-12-24T03:44:52.388Z,1003.91
2022-12-24T03:45:52.620Z,1003.94
2022-12-24T03:46:52.850Z,1003.99
2022-12-24T03:47:53.090Z,1004.03
2022-12-24T03:48:53.301Z,1004.08
2022-12-24T03:49:53.953Z,1004.11
2022-12-24T03:50:53.770Z,1004.11
2022-12-24T03:51:54.009Z,1004.13
2022-12-24T03:52:54.255Z,1004.11
2022-12-24T03:53:54.489Z,1004.10
2022-12-24T03:54:54.757Z,1004.12
2022-12-24T03:55:54.978Z,1004.16
2022-12-24T03:56:55.212Z,1004.13
2022-12-24T03:57:55.453Z,1004.12
2022-12-24T03:58:55.683Z,1004.11
2022-12-24T03:59:56.003Z,1004.14
2022-12-24T04:00:56.192Z,1004.13
2022-12-24T04:01:56.628Z,1004.17
2022-12-24T04:02:56.663Z,1004.15
2022-12-24T04:03:56.871Z,1004.16
2022-12-24T04:04:57.125Z,1004.17
2022-12-24T04:05:57.451Z,1004.18
2022-12-24T04:06:57.588Z,1004.16
2022-12-24T04:07:57.804Z,1004.17
2022-12-24T04:08:58.024Z,1004.16
2022-12-24T04:09:58.262Z,1004.16
2022-12-24T04:10:58.535Z,1004.19
2022-12-24T04:11:58.777Z,1004.23
2022-12-24T04:12:59.015Z,1004.20
2022-12-24T04:13:59.217Z,1004.22
2022-12-24T04:14:59.467Z,1004.22
2022-12-24T04:15:59.862Z,1004.24
2022-12-24T04:17:00.186Z,1004.21
2022-12-24T04:18:00.168Z,1004.22
2022-12-24T04:19:00.411Z,1004.19
2022-12-24T04:20:00.681Z,1004.26
2022-12-24T04:21:00.897Z,1004.22
2022-12-24T04:22:01.159Z,1004.20
2022-12-24T04:23:01.353Z,1004.20
2022-12-24T04:24:01.588Z,1004.20
2022-12-24T04:25:01.837Z,1004.17
2022-12-24T04:26:02.086Z,1004.19
2022-12-24T04:27:02.623Z,1004.22
2022-12-24T04:28:02.516Z,1004.22
2022-12-24T04:29:02.778Z,1004.23
2022-12-24T04:30:03.115Z,1004.17
2022-12-24T04:31:03.217Z,1004.16
2022-12-24T04:32:03.544Z,1004.15
2022-12-24T04:33:03.689Z,1004.20
2022-12-24T04:34:03.938Z,1004.16
2022-12-24T04:35:04.186Z,1004.17
2022-12-24T04:36:04.526Z,1004.17
2022-12-24T04:37:04.670Z,1004.19
2022-12-24T04:38:04.908Z,1004.20
2022-12-24T04:39:05.168Z,1004.21
2022-12-24T04:40:05.362Z,1004.18
2022-12-24T04:41:05.589Z,1004.20
2022-12-24T04:42:05.829Z,1004.26
2022-12-24T04:43:06.046Z,1004.26
2022-12-24T04:44:06.216Z,1004.28
2022-12-24T04:45:06.423Z,1004.25
2022-12-24T04:46:06.687Z,1004.25
2022-12-24T04:47:06.892Z,1004.30
2022-12-24T04:48:07.060Z,1004.28
2022-12-24T04:49:07.279Z,1004.29
2022-12-24T04:50:07.504Z,1004.31
2022-12-24T04:51:07.663Z,1004.29
2022-12-24T04:52:07.879Z,1004.26
2022-12-24T04:53:08.135Z,1004.31
2022-12-24T04:54:08.340Z,1004.30
2022-12-24T04:55:08.576Z,1004.34
2022-12-24T04:56:08.826Z,1004.32
2022-12-24T04:57:09.052Z,1004.36
2022-12-24T04:58:09.347Z,1004.33
2022-12-24T04:59:09.530Z,1004.35
2022-12-24T05:00:09.770Z,1004.35
2022-12-24T05:01:10.159Z,1004.33
2022-12-24T05:02:10.475Z,1004.36
2022-12-24T05:03:10.902Z,1004.38
2022-12-24T05:04:10.719Z,1004.36
2022-12-24T05:05:10.975Z,1004.39
2022-12-24T05:06:11.220Z,1004.40
2022-12-24T05:07:11.453Z,1004.39
2022-12-24T05:08:11.703Z,1004.35
2022-12-24T05:09:11.939Z,1004.34
2022-12-24T05:10:12.336Z,1004.35
2022-12-24T05:11:12.403Z,1004.33
2022-12-24T05:12:12.641Z,1004.33
2022-12-24T05:13:12.877Z,1004.36
2022-12-24T05:14:13.126Z,1004.31
2022-12-24T05:15:13.495Z,1004.29
2022-12-24T05:16:13.732Z,1004.34
2022-12-24T05:17:13.959Z,1004.33
2022-12-24T05:18:14.071Z,1004.35
2022-12-24T05:19:14.513Z,1004.35
2022-12-24T05:20:14.655Z,1004.37
2022-12-24T05:21:14.781Z,1004.40
2022-12-24T05:22:15.023Z,1004.39
2022-12-24T05:23:15.253Z,1004.35
2022-12-24T05:24:15.508Z,1004.39
2022-12-24T05:25:15.820Z,1004.42
2022-12-24T05:26:15.994Z,1004.43
2022-12-24T05:27:16.225Z,1004.44
2022-12-24T05:28:16.465Z,1004.42
2022-12-24T05:29:16.663Z,1004.45
2022-12-24T05:30:16.957Z,1004.41
2022-12-24T05:31:17.170Z,1004.47
2022-12-24T05:32:17.366Z,1004.50
2022-12-24T05:33:17.562Z,1004.48
2022-12-24T05:34:17.881Z,1004.47
2022-12-24T05:35:18.147Z,1004.52
2022-12-24T05:36:18.266Z,1004.51
2022-12-24T05:37:18.476Z,1004.52
2022-12-24T05:38:18.695Z,1004.54
2022-12-24T05:39:18.925Z,1004.54
2022-12-24T05:40:19.206Z,1004.54
2022-12-24T05:41:19.367Z,1004.54
2022-12-24T05:42:19.586Z,1004.56
2022-12-24T05:43:19.807Z,1004.61
2022-12-24T05:44:20.029Z,1004.58
2022-12-24T05:45:20.272Z,1004.61
2022-12-24T05:46:20.563Z,1004.65
2022-12-24T05:47:20.734Z,1004.64
2022-12-24T05:48:20.897Z,1004.63
2022-12-24T05:49:21.119Z,1004.64
2022-12-24T05:50:21.327Z,1004.62
2022-12-24T05:51:21.571Z,1004.62
2022-12-24T05:52:21.758Z,1004.61
2022-12-24T05:53:21.975Z,1004.60
2022-12-24T05:54:22.177Z,1004.65
2022-12-24T05:55:22.436Z,1004.58
2022-12-24T05:56:22.644Z,1004.60
2022-12-24T05:57:22.836Z,1004.61
2022-12-24T05:58:23.055Z,1004.61
2022-12-24T05:59:23.315Z,1004.64
2022-12-24T06:00:23.515Z,1004.65
2022-12-24T06:01:23.781Z,1004.69
2022-12-24T06:02:24.022Z,1004.67
2022-12-24T06:03:24.276Z,1004.68
2022-12-24T06:04:28.589Z,1004.68
2022-12-24T06:05:24.634Z,1004.68
2022-12-24T06:06:24.856Z,1004.71
2022-12-24T06:07:25.077Z,1004.72
2022-12-24T06:08:25.363Z,1004.69
2022-12-24T06:09:25.508Z,1004.71
2022-12-24T06:10:25.679Z,1004.72
2022-12-24T06:11:25.900Z,1004.78
2022-12-24T06:12:26.144Z,1004.80
2022-12-24T06:13:26.315Z,1004.83
2022-12-24T06:14:26.534Z,1004.86
2022-12-24T06:15:26.733Z,1004.88
2022-12-24T06:16:27.082Z,1004.92
2022-12-24T06:17:27.181Z,1004.95
2022-12-24T06:18:27.335Z,1004.91
2022-12-24T06:19:27.540Z,1004.93
2022-12-24T06:20:27.742Z,1004.95
2022-12-24T06:21:27.947Z,1004.97
2022-12-24T06:22:28.201Z,1005.00
2022-12-24T06:23:28.369Z,1005.03
2022-12-24T06:24:28.629Z,1005.00
2022-12-24T06:25:28.786Z,1005.05
2022-12-24T06:26:28.992Z,1005.05
2022-12-24T06:27:29.199Z,1005.06
2022-12-24T06:28:29.408Z,1005.05
2022-12-24T06:29:29.647Z,1005.07
2022-12-24T06:30:29.820Z,1005.08
2022-12-24T06:31:30.084Z,1005.09
2022-12-24T06:32:30.246Z,1005.10
2022-12-24T06:33:30.441Z,1005.10
2022-12-24T06:34:30.693Z,1005.10
2022-12-24T06:35:30.874Z,1005.07
2022-12-24T06:36:31.087Z,1005.09
2022-12-24T06:37:31.262Z,1005.11
2022-12-24T06:38:31.463Z,1005.15
2022-12-24T06:39:31.806Z,1005.13
2022-12-24T06:40:31.896Z,1005.13
2022-12-24T06:41:32.179Z,1005.16
2022-12-24T06:42:32.302Z,1005.18
2022-12-24T06:43:32.515Z,1005.18
2022-12-24T06:44:32.776Z,1005.24
2022-12-24T06:45:32.931Z,1005.28
2022-12-24T06:46:33.232Z,1005.27
2022-12-24T06:47:33.369Z,1005.31
2022-12-24T06:48:33.557Z,1005.29
2022-12-24T06:49:33.791Z,1005.32
2022-12-24T06:50:33.964Z,1005.30
2022-12-24T06:51:34.214Z,1005.27
2022-12-24T06:52:34.391Z,1005.22
2022-12-24T06:53:34.627Z,1005.22
2022-12-24T06:54:34.838Z,1005.22
2022-12-24T06:55:35.038Z,1005.28
2022-12-24T06:56:35.280Z,1005.26
2022-12-24T06:57:35.462Z,1005.31
2022-12-24T06:58:35.690Z,1005.36
2022-12-24T06:59:35.877Z,1005.36
2022-12-24T07:00:36.094Z,1005.37
2022-12-24T07:01:36.495Z,1005.40
2022-12-24T07:02:36.685Z,1005.42
2022-12-24T07:03:36.792Z,1005.40
2022-12-24T07:04:36.929Z,1005.37
2022-12-24T07:05:37.141Z,1005.42
2022-12-24T07:06:37.420Z,1005.43
2022-12-24T07:07:37.548Z,1005.45
2022-12-24T07:08:37.756Z,1005.45
2022-12-24T07:09:37.945Z,1005.44
2022-12-24T07:10:38.148Z,1005.46
2022-12-24T07:11:38.391Z,1005.47
2022-12-24T07:12:38.583Z,1005.47
2022-12-24T07:13:38.777Z,1005.51
2022-12-24T07:14:38.984Z,1005.50
2022-12-24T07:15:39.255Z,1005.55
2022-12-24T07:16:39.575Z,1005.60
2022-12-24T07:17:39.935Z,1005.56
2022-12-24T07:18:39.811Z,1005.61
2022-12-24T07:19:40.371Z,1005.67
2022-12-24T07:20:40.206Z,1005.67
2022-12-24T07:21:40.399Z,1005.68
2022-12-24T07:22:40.637Z,1005.70
2022-12-24T07:23:40.822Z,1005.71
2022-12-24T07:24:41.043Z,1005.69
2022-12-24T07:25:41.240Z,1005.69
2022-12-24T07:26:41.463Z,1005.69
2022-12-24T07:27:41.778Z,1005.75
2022-12-24T07:28:41.929Z,1005.78
2022-12-24T07:29:42.190Z,1005.77
2022-12-24T07:30:42.415Z,1005.78
2022-12-24T07:31:42.701Z,1005.80
2022-12-24T07:32:42.919Z,1005.79
2022-12-24T07:33:43.156Z,1005.79
2022-12-24T07:34:43.415Z,1005.85
2022-12-24T07:35:43.605Z,1005.93
2022-12-24T07:36:43.847Z,1006.00
2022-12-24T07:37:44.078Z,1005.99
2022-12-24T07:38:44.307Z,1006.06
2022-12-24T07:39:44.560Z,1006.05
2022-12-24T07:40:44.755Z,1006.04
2022-12-24T07:41:44.989Z,1006.01
2022-12-24T07:42:45.165Z,1005.92
2022-12-24T07:43:45.365Z,1005.91
2022-12-24T07:44:45.581Z,1005.84
2022-12-24T07:45:45.821Z,1005.86
2022-12-24T07:46:46.235Z,1005.93
2022-12-24T07:47:46.283Z,1005.90
2022-12-24T07:48:46.484Z,1005.98
2022-12-24T07:49:46.723Z,1006.03
2022-12-24T07:50:46.959Z,1006.08
2022-12-24T07:51:47.232Z,1006.05
2022-12-24T07:52:47.419Z,1006.03
2022-12-24T07:53:47.656Z,1006.09
2022-12-24T07:54:47.899Z,1006.10
2022-12-24T07:55:48.142Z,1006.09
2022-12-24T07:56:48.414Z,1006.14
2022-12-24T07:57:48.625Z,1006.14
2022-12-24T07:58:48.849Z,1006.09
2022-12-24T07:59:49.080Z,1006.03
2022-12-24T08:00:49.315Z,1006.01
2022-12-24T08:01:49.786Z,1006.05
2022-12-24T08:02:50.013Z,1006.05
2022-12-24T08:03:50.229Z,1006.06
2022-12-24T08:04:50.245Z,1006.07
2022-12-24T08:05:50.472Z,1006.09
2022-12-24T08:06:50.754Z,1006.09
2022-12-24T08:07:50.961Z,1006.07
2022-12-24T08:08:51.241Z,1006.08
2022-12-24T08:09:51.449Z,1006.12
2022-12-24T08:10:51.688Z,1006.15
2022-12-24T08:11:52.682Z,1006.15
2022-12-24T08:12:52.204Z,1006.13
2022-12-24T08:13:52.461Z,1006.17
2022-12-24T08:14:52.709Z,1006.16
2022-12-24T08:15:52.965Z,1006.13
2022-12-24T08:16:53.219Z,1006.15
2022-12-24T08:17:53.387Z,1006.18
2022-12-24T08:18:53.598Z,1006.23
2022-12-24T08:19:53.871Z,1006.18
2022-12-24T08:20:54.086Z,1006.25
2022-12-24T08:21:54.329Z,1006.29
2022-12-24T08:22:54.558Z,1006.27
2022-12-24T08:23:54.809Z,1006.29
2022-12-24T08:24:55.075Z,1006.30
2022-12-24T08:25:55.338Z,1006.29
2022-12-24T08:26:55.543Z,1006.31
2022-12-24T08:27:55.783Z,1006.35
2022-12-24T08:28:56.004Z,1006.35
2022-12-24T08:29:56.237Z,1006.43
2022-12-24T08:30:56.656Z,1006.47
2022-12-24T08:31:56.795Z,1006.44
2022-12-24T08:32:56.952Z,1006.41
2022-12-24T08:33:57.183Z,1006.43
2022-12-24T08:34:57.411Z,1006.49
2022-12-24T08:35:57.800Z,1006.52
2022-12-24T08:36:57.900Z,1006.53
2022-12-24T08:37:58.139Z,1006.58
2022-12-24T08:38:58.382Z,1006.57
2022-12-24T08:39:58.650Z,1006.61
2022-12-24T08:40:58.929Z,1006.62
2022-12-24T08:41:59.259Z,1006.67
2022-12-24T08:42:59.541Z,1006.68
2022-12-24T08:43:59.638Z,1006.74
2022-12-24T08:44:59.879Z,1006.71
2022-12-24T08:46:00.158Z,1006.69
2022-12-24T08:47:00.330Z,1006.78
2022-12-24T08:48:00.868Z,1006.76
2022-12-24T08:49:00.771Z,1006.81
2022-12-24T08:50:01.032Z,1006.79
2022-12-24T08:51:01.244Z,1006.80
2022-12-24T08:52:01.480Z,1006.80
2022-12-24T08:53:01.806Z,1006.88
2022-12-24T08:54:01.948Z,1006.88
2022-12-24T08:55:02.177Z,1006.89
2022-12-24T08:56:02.422Z,1006.88
2022-12-24T08:57:02.658Z,1006.88
2022-12-24T08:58:02.954Z,1006.86
2022-12-24T08:59:03.122Z,1006.90
2022-12-24T09:00:03.361Z,1006.86
2022-12-24T09:01:03.797Z,1006.84
2022-12-24T09:02:03.934Z,1006.85
2022-12-24T09:03:04.250Z,1006.88
2022-12-24T09:04:04.262Z,1006.90
2022-12-24T09:05:04.539Z,1006.90
2022-12-24T09:06:04.757Z,1006.91
2022-12-24T09:07:04.952Z,1006.92
2022-12-24T09:08:05.182Z,1006.89
2022-12-24T09:09:05.459Z,1006.90
2022-12-24T09:10:05.668Z,1006.93
2022-12-24T09:11:05.892Z,1006.95
2022-12-24T09:12:06.133Z,1006.97
2022-12-24T09:13:06.390Z,1006.95
2022-12-24T09:14:06.586Z,1006.92
2022-12-24T09:15:06.833Z,1006.98
2022-12-24T09:16:07.133Z,1006.97
2022-12-24T09:17:07.394Z,1006.98
2022-12-24T09:18:07.559Z,1007.01
2022-12-24T09:19:07.761Z,1006.97
2022-12-24T09:20:07.993Z,1007.04
2022-12-24T09:21:08.257Z,1007.01
2022-12-24T09:22:08.450Z,1007.02
2022-12-24T09:23:08.707Z,1007.06
2022-12-24T09:24:08.895Z,1007.07
2022-12-24T09:25:09.124Z,1007.11
2022-12-24T09:26:09.357Z,1007.09
2022-12-24T09:27:09.568Z,1007.03
2022-12-24T09:28:09.950Z,1007.03
2022-12-24T09:29:10.089Z,1007.05
2022-12-24T09:30:10.248Z,1007.08
2022-12-24T09:31:10.486Z,1007.09
2022-12-24T09:32:10.782Z,1007.13
2022-12-24T09:33:10.940Z,1007.19
2022-12-24T09:34:11.152Z,1007.18
2022-12-24T09:35:11.349Z,1007.22
2022-12-24T09:36:11.565Z,1007.22
2022-12-24T09:37:11.761Z,1007.25
2022-12-24T09:38:12.011Z,1007.23
